sensor_id;sensor_type;location;lat;lon;timestamp;P1;durP1;ratioP1;P2;durP2;ratioP2
20776;SDS011;10548;47.504;8.248;2023-05-07T00:00:09;6.93;;;3.43;;
20776;SDS011;10548;47.504;8.248;2023-05-07T00:02:38;8.00;;;3.40;;
20776;SDS011;10548;47.504;8.248;2023-05-07T00:05:05;4.73;;;3.10;;
20776;SDS011;10548;47.504;8.248;2023-05-07T00:07:34;6.87;;;3.50;;
20776;SDS011;10548;47.504;8.248;2023-05-07T00:10:02;5.47;;;3.37;;
20776;SDS011;10548;47.504;8.248;2023-05-07T00:12:29;4.90;;;3.23;;
20776;SDS011;10548;47.504;8.248;2023-05-07T00:15:03;8.00;;;3.27;;
20776;SDS011;10548;47.504;8.248;2023-05-07T00:17:32;5.80;;;3.73;;
20776;SDS011;10548;47.504;8.248;2023-05-07T00:20:00;7.80;;;3.97;;
20776;SDS011;10548;47.504;8.248;2023-05-07T00:22:27;5.80;;;4.00;;
20776;SDS011;10548;47.504;8.248;2023-05-07T00:24:56;5.03;;;3.43;;
20776;SDS011;10548;47.504;8.248;2023-05-07T00:27:24;4.30;;;3.50;;
20776;SDS011;10548;47.504;8.248;2023-05-07T00:29:51;5.53;;;3.40;;
20776;SDS011;10548;47.504;8.248;2023-05-07T00:32:18;4.07;;;2.93;;
20776;SDS011;10548;47.504;8.248;2023-05-07T00:34:45;5.17;;;3.63;;
20776;SDS011;10548;47.504;8.248;2023-05-07T00:37:13;6.80;;;4.03;;
20776;SDS011;10548;47.504;8.248;2023-05-07T00:39:40;6.93;;;4.40;;
20776;SDS011;10548;47.504;8.248;2023-05-07T00:42:07;8.80;;;4.20;;
20776;SDS011;10548;47.504;8.248;2023-05-07T00:44:34;8.47;;;4.27;;
20776;SDS011;10548;47.504;8.248;2023-05-07T00:47:02;9.17;;;4.00;;
20776;SDS011;10548;47.504;8.248;2023-05-07T00:49:37;6.83;;;4.00;;
20776;SDS011;10548;47.504;8.248;2023-05-07T00:52:06;9.53;;;3.93;;
20776;SDS011;10548;47.504;8.248;2023-05-07T00:54:35;6.50;;;4.10;;
20776;SDS011;10548;47.504;8.248;2023-05-07T00:57:03;7.57;;;4.00;;
20776;SDS011;10548;47.504;8.248;2023-05-07T00:59:31;6.50;;;3.90;;
20776;SDS011;10548;47.504;8.248;2023-05-07T01:01:59;4.70;;;3.73;;
20776;SDS011;10548;47.504;8.248;2023-05-07T01:04:26;4.23;;;3.37;;
20776;SDS011;10548;47.504;8.248;2023-05-07T01:06:55;8.03;;;4.50;;
20776;SDS011;10548;47.504;8.248;2023-05-07T01:09:24;5.67;;;4.03;;
20776;SDS011;10548;47.504;8.248;2023-05-07T01:11:52;7.97;;;4.10;;
20776;SDS011;10548;47.504;8.248;2023-05-07T01:14:21;10.93;;;4.43;;
20776;SDS011;10548;47.504;8.248;2023-05-07T01:16:48;4.87;;;3.77;;
20776;SDS011;10548;47.504;8.248;2023-05-07T01:19:20;10.87;;;4.30;;
20776;SDS011;10548;47.504;8.248;2023-05-07T01:21:48;7.10;;;4.20;;
20776;SDS011;10548;47.504;8.248;2023-05-07T01:24:19;4.67;;;4.00;;
20776;SDS011;10548;47.504;8.248;2023-05-07T01:26:46;5.37;;;4.00;;
20776;SDS011;10548;47.504;8.248;2023-05-07T01:29:15;10.37;;;4.30;;
20776;SDS011;10548;47.504;8.248;2023-05-07T01:31:44;5.67;;;4.20;;
20776;SDS011;10548;47.504;8.248;2023-05-07T01:34:12;10.00;;;4.70;;
20776;SDS011;10548;47.504;8.248;2023-05-07T01:36:43;8.50;;;4.60;;
20776;SDS011;10548;47.504;8.248;2023-05-07T01:39:11;7.07;;;4.77;;
20776;SDS011;10548;47.504;8.248;2023-05-07T01:41:39;10.90;;;4.80;;
20776;SDS011;10548;47.504;8.248;2023-05-07T01:44:06;7.20;;;5.07;;
20776;SDS011;10548;47.504;8.248;2023-05-07T01:46:35;9.73;;;5.40;;
20776;SDS011;10548;47.504;8.248;2023-05-07T01:49:02;8.87;;;5.03;;
20776;SDS011;10548;47.504;8.248;2023-05-07T01:51:30;9.37;;;5.13;;
20776;SDS011;10548;47.504;8.248;2023-05-07T01:53:58;11.53;;;4.70;;
20776;SDS011;10548;47.504;8.248;2023-05-07T01:56:25;7.57;;;5.10;;
20776;SDS011;10548;47.504;8.248;2023-05-07T01:58:53;8.23;;;4.93;;
20776;SDS011;10548;47.504;8.248;2023-05-07T02:01:21;7.13;;;4.90;;
20776;SDS011;10548;47.504;8.248;2023-05-07T02:03:48;12.97;;;4.80;;
20776;SDS011;10548;47.504;8.248;2023-05-07T02:06:21;9.67;;;4.87;;
20776;SDS011;10548;47.504;8.248;2023-05-07T02:08:51;8.43;;;4.97;;
20776;SDS011;10548;47.504;8.248;2023-05-07T02:11:18;8.17;;;4.63;;
20776;SDS011;10548;47.504;8.248;2023-05-07T02:13:45;13.87;;;5.30;;
20776;SDS011;10548;47.504;8.248;2023-05-07T02:16:12;11.60;;;5.57;;
20776;SDS011;10548;47.504;8.248;2023-05-07T02:18:40;6.63;;;5.00;;
20776;SDS011;10548;47.504;8.248;2023-05-07T02:21:08;6.23;;;4.90;;
20776;SDS011;10548;47.504;8.248;2023-05-07T02:23:35;9.47;;;5.37;;
20776;SDS011;10548;47.504;8.248;2023-05-07T02:26:03;6.73;;;4.73;;
20776;SDS011;10548;47.504;8.248;2023-05-07T02:28:31;10.17;;;5.27;;
20776;SDS011;10548;47.504;8.248;2023-05-07T02:31:03;8.23;;;5.60;;
20776;SDS011;10548;47.504;8.248;2023-05-07T02:33:31;10.93;;;5.33;;
20776;SDS011;10548;47.504;8.248;2023-05-07T02:36:08;9.87;;;5.50;;
20776;SDS011;10548;47.504;8.248;2023-05-07T02:38:49;7.63;;;5.57;;
20776;SDS011;10548;47.504;8.248;2023-05-07T02:41:16;12.67;;;5.77;;
20776;SDS011;10548;47.504;8.248;2023-05-07T02:43:43;8.27;;;5.00;;
20776;SDS011;10548;47.504;8.248;2023-05-07T02:46:11;13.60;;;5.70;;
20776;SDS011;10548;47.504;8.248;2023-05-07T02:48:42;10.13;;;5.40;;
20776;SDS011;10548;47.504;8.248;2023-05-07T02:51:10;7.40;;;4.90;;
20776;SDS011;10548;47.504;8.248;2023-05-07T02:53:39;7.97;;;4.67;;
20776;SDS011;10548;47.504;8.248;2023-05-07T02:56:06;10.30;;;5.00;;
20776;SDS011;10548;47.504;8.248;2023-05-07T02:58:34;9.30;;;5.43;;
20776;SDS011;10548;47.504;8.248;2023-05-07T03:01:02;8.30;;;5.33;;
20776;SDS011;10548;47.504;8.248;2023-05-07T03:03:34;9.33;;;6.30;;
20776;SDS011;10548;47.504;8.248;2023-05-07T03:06:02;8.30;;;5.37;;
20776;SDS011;10548;47.504;8.248;2023-05-07T03:08:29;7.10;;;5.40;;
20776;SDS011;10548;47.504;8.248;2023-05-07T03:10:56;10.67;;;5.43;;
20776;SDS011;10548;47.504;8.248;2023-05-07T03:13:24;7.70;;;5.57;;
20776;SDS011;10548;47.504;8.248;2023-05-07T03:15:51;6.97;;;4.83;;
20776;SDS011;10548;47.504;8.248;2023-05-07T03:18:19;12.23;;;5.87;;
20776;SDS011;10548;47.504;8.248;2023-05-07T03:20:47;12.80;;;6.07;;
20776;SDS011;10548;47.504;8.248;2023-05-07T03:23:16;12.47;;;6.40;;
20776;SDS011;10548;47.504;8.248;2023-05-07T03:25:43;8.97;;;6.00;;
20776;SDS011;10548;47.504;8.248;2023-05-07T03:28:11;11.67;;;6.57;;
20776;SDS011;10548;47.504;8.248;2023-05-07T03:30:47;11.87;;;6.97;;
20776;SDS011;10548;47.504;8.248;2023-05-07T03:33:14;13.40;;;7.67;;
20776;SDS011;10548;47.504;8.248;2023-05-07T03:35:42;8.60;;;6.63;;
20776;SDS011;10548;47.504;8.248;2023-05-07T03:38:09;15.50;;;7.37;;
20776;SDS011;10548;47.504;8.248;2023-05-07T03:40:37;11.57;;;7.23;;
20776;SDS011;10548;47.504;8.248;2023-05-07T03:43:05;9.90;;;6.37;;
20776;SDS011;10548;47.504;8.248;2023-05-07T03:45:35;9.37;;;6.70;;
20776;SDS011;10548;47.504;8.248;2023-05-07T03:48:10;12.80;;;7.67;;
20776;SDS011;10548;47.504;8.248;2023-05-07T03:50:37;12.03;;;6.73;;
20776;SDS011;10548;47.504;8.248;2023-05-07T03:53:05;10.50;;;8.13;;
20776;SDS011;10548;47.504;8.248;2023-05-07T03:55:37;9.90;;;7.57;;
20776;SDS011;10548;47.504;8.248;2023-05-07T03:58:04;11.40;;;7.97;;
20776;SDS011;10548;47.504;8.248;2023-05-07T04:00:32;12.63;;;7.60;;
20776;SDS011;10548;47.504;8.248;2023-05-07T04:03:12;10.40;;;7.63;;
20776;SDS011;10548;47.504;8.248;2023-05-07T04:05:39;13.13;;;6.53;;
20776;SDS011;10548;47.504;8.248;2023-05-07T04:08:07;12.33;;;6.87;;
20776;SDS011;10548;47.504;8.248;2023-05-07T04:10:38;11.63;;;7.15;;
20776;SDS011;10548;47.504;8.248;2023-05-07T04:13:10;10.30;;;6.43;;
20776;SDS011;10548;47.504;8.248;2023-05-07T04:15:37;14.43;;;6.87;;
20776;SDS011;10548;47.504;8.248;2023-05-07T04:18:08;8.90;;;6.83;;
20776;SDS011;10548;47.504;8.248;2023-05-07T04:20:36;10.90;;;7.53;;
20776;SDS011;10548;47.504;8.248;2023-05-07T04:23:07;9.90;;;6.87;;
20776;SDS011;10548;47.504;8.248;2023-05-07T04:25:35;11.10;;;7.00;;
20776;SDS011;10548;47.504;8.248;2023-05-07T04:28:17;11.07;;;6.30;;
20776;SDS011;10548;47.504;8.248;2023-05-07T04:30:45;8.47;;;6.03;;
20776;SDS011;10548;47.504;8.248;2023-05-07T04:33:13;9.17;;;6.03;;
20776;SDS011;10548;47.504;8.248;2023-05-07T04:35:44;10.87;;;5.63;;
20776;SDS011;10548;47.504;8.248;2023-05-07T04:38:11;8.77;;;5.63;;
20776;SDS011;10548;47.504;8.248;2023-05-07T04:40:38;12.33;;;6.43;;
20776;SDS011;10548;47.504;8.248;2023-05-07T04:43:07;9.07;;;5.70;;
20776;SDS011;10548;47.504;8.248;2023-05-07T04:45:42;8.50;;;6.13;;
20776;SDS011;10548;47.504;8.248;2023-05-07T04:48:10;10.93;;;7.13;;
20776;SDS011;10548;47.504;8.248;2023-05-07T04:50:39;9.67;;;6.63;;
20776;SDS011;10548;47.504;8.248;2023-05-07T04:53:07;7.90;;;5.87;;
20776;SDS011;10548;47.504;8.248;2023-05-07T04:55:35;10.77;;;6.23;;
20776;SDS011;10548;47.504;8.248;2023-05-07T04:58:03;7.10;;;5.60;;
20776;SDS011;10548;47.504;8.248;2023-05-07T05:00:33;7.90;;;6.43;;
20776;SDS011;10548;47.504;8.248;2023-05-07T05:03:02;10.40;;;6.07;;
20776;SDS011;10548;47.504;8.248;2023-05-07T05:05:30;9.63;;;6.07;;
20776;SDS011;10548;47.504;8.248;2023-05-07T05:07:58;11.63;;;6.77;;
20776;SDS011;10548;47.504;8.248;2023-05-07T05:10:25;9.90;;;6.47;;
20776;SDS011;10548;47.504;8.248;2023-05-07T05:12:54;11.33;;;6.50;;
20776;SDS011;10548;47.504;8.248;2023-05-07T05:15:23;10.20;;;6.87;;
20776;SDS011;10548;47.504;8.248;2023-05-07T05:17:51;10.63;;;6.23;;
20776;SDS011;10548;47.504;8.248;2023-05-07T05:20:18;9.37;;;6.40;;
20776;SDS011;10548;47.504;8.248;2023-05-07T05:22:47;11.97;;;6.63;;
20776;SDS011;10548;47.504;8.248;2023-05-07T05:25:14;15.10;;;6.73;;
20776;SDS011;10548;47.504;8.248;2023-05-07T05:27:41;15.93;;;6.93;;
20776;SDS011;10548;47.504;8.248;2023-05-07T05:30:09;10.10;;;6.70;;
20776;SDS011;10548;47.504;8.248;2023-05-07T05:32:37;11.97;;;7.43;;
20776;SDS011;10548;47.504;8.248;2023-05-07T05:35:05;11.30;;;8.40;;
20776;SDS011;10548;47.504;8.248;2023-05-07T05:37:34;9.20;;;6.50;;
20776;SDS011;10548;47.504;8.248;2023-05-07T05:40:04;8.10;;;7.00;;
20776;SDS011;10548;47.504;8.248;2023-05-07T05:42:32;8.07;;;6.10;;
20776;SDS011;10548;47.504;8.248;2023-05-07T05:45:00;9.83;;;6.57;;
20776;SDS011;10548;47.504;8.248;2023-05-07T05:47:29;7.77;;;5.77;;
20776;SDS011;10548;47.504;8.248;2023-05-07T05:49:56;15.70;;;7.50;;
20776;SDS011;10548;47.504;8.248;2023-05-07T05:52:24;11.50;;;6.27;;
20776;SDS011;10548;47.504;8.248;2023-05-07T05:54:53;10.33;;;7.13;;
20776;SDS011;10548;47.504;8.248;2023-05-07T05:57:20;9.77;;;7.17;;
20776;SDS011;10548;47.504;8.248;2023-05-07T05:59:48;12.23;;;7.63;;
20776;SDS011;10548;47.504;8.248;2023-05-07T06:02:15;14.47;;;8.77;;
20776;SDS011;10548;47.504;8.248;2023-05-07T06:04:42;12.60;;;8.33;;
20776;SDS011;10548;47.504;8.248;2023-05-07T06:07:12;13.90;;;7.77;;
20776;SDS011;10548;47.504;8.248;2023-05-07T06:09:40;13.73;;;9.17;;
20776;SDS011;10548;47.504;8.248;2023-05-07T06:12:07;12.17;;;7.80;;
20776;SDS011;10548;47.504;8.248;2023-05-07T06:14:35;17.27;;;9.23;;
20776;SDS011;10548;47.504;8.248;2023-05-07T06:17:03;12.63;;;8.17;;
20776;SDS011;10548;47.504;8.248;2023-05-07T06:19:30;14.73;;;7.67;;
20776;SDS011;10548;47.504;8.248;2023-05-07T06:21:58;12.80;;;8.93;;
20776;SDS011;10548;47.504;8.248;2023-05-07T06:24:29;16.30;;;8.63;;
20776;SDS011;10548;47.504;8.248;2023-05-07T06:26:56;12.33;;;7.50;;
20776;SDS011;10548;47.504;8.248;2023-05-07T06:29:26;11.77;;;6.60;;
20776;SDS011;10548;47.504;8.248;2023-05-07T06:31:53;10.63;;;7.23;;
20776;SDS011;10548;47.504;8.248;2023-05-07T06:34:21;11.23;;;7.13;;
20776;SDS011;10548;47.504;8.248;2023-05-07T06:36:49;13.67;;;9.40;;
20776;SDS011;10548;47.504;8.248;2023-05-07T06:39:29;11.53;;;9.10;;
20776;SDS011;10548;47.504;8.248;2023-05-07T06:41:57;18.30;;;11.70;;
20776;SDS011;10548;47.504;8.248;2023-05-07T06:44:29;16.67;;;9.47;;
20776;SDS011;10548;47.504;8.248;2023-05-07T06:47:17;18.30;;;11.07;;
20776;SDS011;10548;47.504;8.248;2023-05-07T06:49:49;21.00;;;10.87;;
20776;SDS011;10548;47.504;8.248;2023-05-07T06:52:19;18.33;;;10.00;;
20776;SDS011;10548;47.504;8.248;2023-05-07T06:54:48;17.57;;;10.17;;
20776;SDS011;10548;47.504;8.248;2023-05-07T06:57:18;25.17;;;12.07;;
20776;SDS011;10548;47.504;8.248;2023-05-07T06:59:45;19.43;;;10.47;;
20776;SDS011;10548;47.504;8.248;2023-05-07T07:02:13;17.63;;;10.30;;
20776;SDS011;10548;47.504;8.248;2023-05-07T07:04:43;20.50;;;12.70;;
20776;SDS011;10548;47.504;8.248;2023-05-07T07:07:12;24.07;;;12.93;;
20776;SDS011;10548;47.504;8.248;2023-05-07T07:09:42;20.90;;;11.97;;
20776;SDS011;10548;47.504;8.248;2023-05-07T07:12:10;19.53;;;11.13;;
20776;SDS011;10548;47.504;8.248;2023-05-07T07:14:39;22.17;;;11.10;;
20776;SDS011;10548;47.504;8.248;2023-05-07T07:17:06;16.80;;;9.07;;
20776;SDS011;10548;47.504;8.248;2023-05-07T07:19:33;16.40;;;10.10;;
20776;SDS011;10548;47.504;8.248;2023-05-07T07:22:02;16.27;;;9.03;;
20776;SDS011;10548;47.504;8.248;2023-05-07T07:24:31;14.57;;;9.67;;
20776;SDS011;10548;47.504;8.248;2023-05-07T07:27:02;16.83;;;9.07;;
20776;SDS011;10548;47.504;8.248;2023-05-07T07:29:31;13.07;;;9.20;;
20776;SDS011;10548;47.504;8.248;2023-05-07T07:31:59;14.30;;;9.63;;
20776;SDS011;10548;47.504;8.248;2023-05-07T07:34:26;15.73;;;9.30;;
20776;SDS011;10548;47.504;8.248;2023-05-07T07:36:54;13.60;;;8.60;;
20776;SDS011;10548;47.504;8.248;2023-05-07T07:39:23;14.60;;;8.87;;
20776;SDS011;10548;47.504;8.248;2023-05-07T07:41:53;12.67;;;7.90;;
20776;SDS011;10548;47.504;8.248;2023-05-07T07:44:21;16.70;;;8.77;;
20776;SDS011;10548;47.504;8.248;2023-05-07T07:46:52;12.37;;;8.83;;
20776;SDS011;10548;47.504;8.248;2023-05-07T07:49:21;12.00;;;8.87;;
20776;SDS011;10548;47.504;8.248;2023-05-07T07:51:48;13.60;;;8.60;;
20776;SDS011;10548;47.504;8.248;2023-05-07T07:54:16;12.80;;;7.40;;
20776;SDS011;10548;47.504;8.248;2023-05-07T07:56:44;11.50;;;7.67;;
20776;SDS011;10548;47.504;8.248;2023-05-07T07:59:12;15.07;;;6.80;;
20776;SDS011;10548;47.504;8.248;2023-05-07T08:01:45;9.60;;;6.83;;
20776;SDS011;10548;47.504;8.248;2023-05-07T08:04:14;9.97;;;6.60;;
20776;SDS011;10548;47.504;8.248;2023-05-07T08:06:43;10.37;;;6.87;;
20776;SDS011;10548;47.504;8.248;2023-05-07T08:09:10;8.20;;;6.80;;
20776;SDS011;10548;47.504;8.248;2023-05-07T08:11:39;12.37;;;7.30;;
20776;SDS011;10548;47.504;8.248;2023-05-07T08:14:07;10.00;;;6.93;;
20776;SDS011;10548;47.504;8.248;2023-05-07T08:16:35;9.97;;;6.07;;
20776;SDS011;10548;47.504;8.248;2023-05-07T08:19:02;8.90;;;6.23;;
20776;SDS011;10548;47.504;8.248;2023-05-07T08:21:30;11.10;;;5.70;;
20776;SDS011;10548;47.504;8.248;2023-05-07T08:24:00;11.40;;;5.77;;
20776;SDS011;10548;47.504;8.248;2023-05-07T08:26:28;5.47;;;4.40;;
20776;SDS011;10548;47.504;8.248;2023-05-07T08:28:55;5.97;;;4.43;;
20776;SDS011;10548;47.504;8.248;2023-05-07T08:31:23;8.43;;;5.23;;
20776;SDS011;10548;47.504;8.248;2023-05-07T08:33:50;5.53;;;4.70;;
20776;SDS011;10548;47.504;8.248;2023-05-07T08:36:17;7.70;;;4.77;;
20776;SDS011;10548;47.504;8.248;2023-05-07T08:38:45;8.70;;;4.30;;
20776;SDS011;10548;47.504;8.248;2023-05-07T08:41:13;6.43;;;4.50;;
20776;SDS011;10548;47.504;8.248;2023-05-07T08:43:45;5.30;;;4.40;;
20776;SDS011;10548;47.504;8.248;2023-05-07T08:46:17;12.10;;;4.63;;
20776;SDS011;10548;47.504;8.248;2023-05-07T08:48:50;7.13;;;3.97;;
20776;SDS011;10548;47.504;8.248;2023-05-07T08:51:19;11.33;;;4.30;;
20776;SDS011;10548;47.504;8.248;2023-05-07T08:53:48;6.93;;;3.67;;
20776;SDS011;10548;47.504;8.248;2023-05-07T08:56:22;8.00;;;3.83;;
20776;SDS011;10548;47.504;8.248;2023-05-07T08:58:51;10.23;;;3.83;;
20776;SDS011;10548;47.504;8.248;2023-05-07T09:01:23;5.37;;;3.70;;
20776;SDS011;10548;47.504;8.248;2023-05-07T09:03:52;4.67;;;3.33;;
20776;SDS011;10548;47.504;8.248;2023-05-07T09:06:21;5.73;;;3.63;;
20776;SDS011;10548;47.504;8.248;2023-05-07T09:08:50;4.63;;;3.30;;
20776;SDS011;10548;47.504;8.248;2023-05-07T09:11:21;8.60;;;3.73;;
20776;SDS011;10548;47.504;8.248;2023-05-07T09:13:55;6.27;;;3.10;;
20776;SDS011;10548;47.504;8.248;2023-05-07T09:16:25;4.07;;;3.40;;
20776;SDS011;10548;47.504;8.248;2023-05-07T09:18:54;6.70;;;3.70;;
20776;SDS011;10548;47.504;8.248;2023-05-07T09:21:25;6.30;;;3.57;;
20776;SDS011;10548;47.504;8.248;2023-05-07T09:23:54;6.80;;;3.60;;
20776;SDS011;10548;47.504;8.248;2023-05-07T09:26:31;8.13;;;3.97;;
20776;SDS011;10548;47.504;8.248;2023-05-07T09:28:59;6.10;;;3.50;;
20776;SDS011;10548;47.504;8.248;2023-05-07T09:31:27;5.30;;;3.30;;
20776;SDS011;10548;47.504;8.248;2023-05-07T09:33:54;6.33;;;3.47;;
20776;SDS011;10548;47.504;8.248;2023-05-07T09:36:25;8.03;;;3.77;;
20776;SDS011;10548;47.504;8.248;2023-05-07T09:38:53;7.70;;;3.80;;
20776;SDS011;10548;47.504;8.248;2023-05-07T09:41:23;3.43;;;2.90;;
20776;SDS011;10548;47.504;8.248;2023-05-07T09:43:58;5.27;;;3.30;;
20776;SDS011;10548;47.504;8.248;2023-05-07T09:46:34;5.30;;;3.23;;
20776;SDS011;10548;47.504;8.248;2023-05-07T09:49:16;4.53;;;2.77;;
20776;SDS011;10548;47.504;8.248;2023-05-07T09:51:52;6.30;;;2.80;;
20776;SDS011;10548;47.504;8.248;2023-05-07T09:54:22;6.37;;;3.50;;
20776;SDS011;10548;47.504;8.248;2023-05-07T09:56:52;3.87;;;2.70;;
20776;SDS011;10548;47.504;8.248;2023-05-07T09:59:24;5.53;;;3.00;;
20776;SDS011;10548;47.504;8.248;2023-05-07T10:01:58;6.00;;;3.43;;
20776;SDS011;10548;47.504;8.248;2023-05-07T10:04:30;10.17;;;3.80;;
20776;SDS011;10548;47.504;8.248;2023-05-07T10:06:59;9.13;;;3.73;;
20776;SDS011;10548;47.504;8.248;2023-05-07T10:09:28;8.07;;;3.70;;
20776;SDS011;10548;47.504;8.248;2023-05-07T10:11:56;6.13;;;3.60;;
20776;SDS011;10548;47.504;8.248;2023-05-07T10:14:25;4.50;;;3.40;;
20776;SDS011;10548;47.504;8.248;2023-05-07T10:16:54;6.77;;;3.50;;
20776;SDS011;10548;47.504;8.248;2023-05-07T10:19:22;4.80;;;3.50;;
20776;SDS011;10548;47.504;8.248;2023-05-07T10:21:58;5.03;;;3.60;;
20776;SDS011;10548;47.504;8.248;2023-05-07T10:24:35;7.67;;;4.37;;
20776;SDS011;10548;47.504;8.248;2023-05-07T10:27:09;5.80;;;3.53;;
20776;SDS011;10548;47.504;8.248;2023-05-07T10:32:52;5.53;;;3.57;;
20776;SDS011;10548;47.504;8.248;2023-05-07T10:35:29;6.50;;;3.07;;
20776;SDS011;10548;47.504;8.248;2023-05-07T10:38:02;6.67;;;3.33;;
20776;SDS011;10548;47.504;8.248;2023-05-07T10:40:32;6.77;;;3.53;;
20776;SDS011;10548;47.504;8.248;2023-05-07T10:43:02;6.60;;;3.20;;
20776;SDS011;10548;47.504;8.248;2023-05-07T10:46:14;8.43;;;3.67;;
20776;SDS011;10548;47.504;8.248;2023-05-07T10:55:18;4.50;;;3.50;;
20776;SDS011;10548;47.504;8.248;2023-05-07T10:58:26;5.47;;;3.83;;
20776;SDS011;10548;47.504;8.248;2023-05-07T11:01:48;4.60;;;3.70;;
20776;SDS011;10548;47.504;8.248;2023-05-07T11:04:35;5.97;;;3.90;;
20776;SDS011;10548;47.504;8.248;2023-05-07T11:07:25;5.47;;;3.70;;
20776;SDS011;10548;47.504;8.248;2023-05-07T11:10:14;6.33;;;3.37;;
20776;SDS011;10548;47.504;8.248;2023-05-07T11:12:52;6.80;;;3.50;;
20776;SDS011;10548;47.504;8.248;2023-05-07T11:15:42;8.40;;;3.53;;
20776;SDS011;10548;47.504;8.248;2023-05-07T11:18:48;4.63;;;3.80;;
20776;SDS011;10548;47.504;8.248;2023-05-07T11:21:35;6.40;;;4.03;;
20776;SDS011;10548;47.504;8.248;2023-05-07T11:24:27;7.67;;;3.63;;
20776;SDS011;10548;47.504;8.248;2023-05-07T11:26:59;6.67;;;3.63;;
20776;SDS011;10548;47.504;8.248;2023-05-07T11:29:28;7.10;;;3.80;;
20776;SDS011;10548;47.504;8.248;2023-05-07T11:32:03;4.53;;;3.33;;
20776;SDS011;10548;47.504;8.248;2023-05-07T11:34:39;9.93;;;3.50;;
20776;SDS011;10548;47.504;8.248;2023-05-07T11:37:06;5.97;;;3.57;;
20776;SDS011;10548;47.504;8.248;2023-05-07T11:39:48;5.43;;;3.60;;
20776;SDS011;10548;47.504;8.248;2023-05-07T11:42:28;10.97;;;3.67;;
20776;SDS011;10548;47.504;8.248;2023-05-07T11:45:00;4.70;;;3.37;;
20776;SDS011;10548;47.504;8.248;2023-05-07T11:47:29;5.20;;;2.67;;
20776;SDS011;10548;47.504;8.248;2023-05-07T11:49:57;5.90;;;2.73;;
20776;SDS011;10548;47.504;8.248;2023-05-07T11:52:33;8.47;;;2.97;;
20776;SDS011;10548;47.504;8.248;2023-05-07T11:55:01;7.33;;;2.80;;
20776;SDS011;10548;47.504;8.248;2023-05-07T11:57:30;5.33;;;2.53;;
20776;SDS011;10548;47.504;8.248;2023-05-07T11:59:59;4.47;;;2.80;;
20776;SDS011;10548;47.504;8.248;2023-05-07T12:02:37;5.60;;;2.57;;
20776;SDS011;10548;47.504;8.248;2023-05-07T12:05:05;5.93;;;2.47;;
20776;SDS011;10548;47.504;8.248;2023-05-07T12:07:36;5.17;;;2.60;;
20776;SDS011;10548;47.504;8.248;2023-05-07T12:10:06;13.40;;;3.17;;
20776;SDS011;10548;47.504;8.248;2023-05-07T12:12:45;6.27;;;2.80;;
20776;SDS011;10548;47.504;8.248;2023-05-07T12:15:15;3.30;;;2.00;;
20776;SDS011;10548;47.504;8.248;2023-05-07T12:17:43;4.57;;;2.53;;
20776;SDS011;10548;47.504;8.248;2023-05-07T12:20:11;4.30;;;2.50;;
20776;SDS011;10548;47.504;8.248;2023-05-07T12:22:38;3.40;;;2.17;;
20776;SDS011;10548;47.504;8.248;2023-05-07T12:25:06;3.07;;;2.33;;
20776;SDS011;10548;47.504;8.248;2023-05-07T12:27:36;8.67;;;2.77;;
20776;SDS011;10548;47.504;8.248;2023-05-07T12:30:04;3.50;;;2.50;;
20776;SDS011;10548;47.504;8.248;2023-05-07T12:32:32;4.53;;;2.87;;
20776;SDS011;10548;47.504;8.248;2023-05-07T12:35:04;5.27;;;2.53;;
20776;SDS011;10548;47.504;8.248;2023-05-07T12:37:33;4.50;;;2.57;;
20776;SDS011;10548;47.504;8.248;2023-05-07T12:40:09;5.03;;;2.50;;
20776;SDS011;10548;47.504;8.248;2023-05-07T12:42:37;8.17;;;2.93;;
20776;SDS011;10548;47.504;8.248;2023-05-07T12:45:10;5.80;;;3.20;;
20776;SDS011;10548;47.504;8.248;2023-05-07T12:47:39;6.50;;;3.20;;
20776;SDS011;10548;47.504;8.248;2023-05-07T12:50:10;5.67;;;3.03;;
20776;SDS011;10548;47.504;8.248;2023-05-07T12:52:37;8.17;;;3.60;;
20776;SDS011;10548;47.504;8.248;2023-05-07T12:55:05;6.80;;;3.20;;
20776;SDS011;10548;47.504;8.248;2023-05-07T12:57:39;4.97;;;3.23;;
20776;SDS011;10548;47.504;8.248;2023-05-07T13:00:10;4.33;;;2.53;;
20776;SDS011;10548;47.504;8.248;2023-05-07T13:02:38;4.67;;;2.30;;
20776;SDS011;10548;47.504;8.248;2023-05-07T13:05:07;5.10;;;2.50;;
20776;SDS011;10548;47.504;8.248;2023-05-07T13:07:35;2.77;;;2.30;;
20776;SDS011;10548;47.504;8.248;2023-05-07T13:10:03;3.73;;;2.33;;
20776;SDS011;10548;47.504;8.248;2023-05-07T13:12:31;3.93;;;2.10;;
20776;SDS011;10548;47.504;8.248;2023-05-07T13:14:59;3.10;;;2.27;;
20776;SDS011;10548;47.504;8.248;2023-05-07T13:17:26;2.97;;;2.20;;
20776;SDS011;10548;47.504;8.248;2023-05-07T13:19:53;4.87;;;2.60;;
20776;SDS011;10548;47.504;8.248;2023-05-07T13:22:20;4.50;;;2.60;;
20776;SDS011;10548;47.504;8.248;2023-05-07T13:24:47;5.77;;;2.37;;
20776;SDS011;10548;47.504;8.248;2023-05-07T13:27:14;3.40;;;2.37;;
20776;SDS011;10548;47.504;8.248;2023-05-07T13:29:42;3.33;;;1.93;;
20776;SDS011;10548;47.504;8.248;2023-05-07T13:32:09;2.93;;;2.13;;
20776;SDS011;10548;47.504;8.248;2023-05-07T13:34:36;4.60;;;2.33;;
20776;SDS011;10548;47.504;8.248;2023-05-07T13:37:03;4.27;;;2.80;;
20776;SDS011;10548;47.504;8.248;2023-05-07T13:39:30;4.37;;;3.00;;
20776;SDS011;10548;47.504;8.248;2023-05-07T13:41:58;8.13;;;2.83;;
20776;SDS011;10548;47.504;8.248;2023-05-07T13:44:25;4.63;;;2.40;;
20776;SDS011;10548;47.504;8.248;2023-05-07T13:46:52;5.03;;;2.97;;
20776;SDS011;10548;47.504;8.248;2023-05-07T13:49:20;7.47;;;2.93;;
20776;SDS011;10548;47.504;8.248;2023-05-07T13:51:47;4.73;;;2.80;;
20776;SDS011;10548;47.504;8.248;2023-05-07T13:54:14;7.23;;;3.13;;
20776;SDS011;10548;47.504;8.248;2023-05-07T13:56:42;7.70;;;3.07;;
20776;SDS011;10548;47.504;8.248;2023-05-07T13:59:09;5.30;;;3.00;;
20776;SDS011;10548;47.504;8.248;2023-05-07T14:01:36;5.27;;;2.50;;
20776;SDS011;10548;47.504;8.248;2023-05-07T14:04:04;3.47;;;2.90;;
20776;SDS011;10548;47.504;8.248;2023-05-07T14:06:31;3.97;;;2.83;;
20776;SDS011;10548;47.504;8.248;2023-05-07T14:08:58;2.83;;;2.17;;
20776;SDS011;10548;47.504;8.248;2023-05-07T14:11:26;3.73;;;2.30;;
20776;SDS011;10548;47.504;8.248;2023-05-07T14:13:53;4.37;;;2.50;;
20776;SDS011;10548;47.504;8.248;2023-05-07T14:16:20;4.07;;;2.43;;
20776;SDS011;10548;47.504;8.248;2023-05-07T14:18:48;2.97;;;2.03;;
20776;SDS011;10548;47.504;8.248;2023-05-07T14:21:15;4.17;;;2.50;;
20776;SDS011;10548;47.504;8.248;2023-05-07T14:23:42;2.77;;;1.97;;
20776;SDS011;10548;47.504;8.248;2023-05-07T14:26:09;3.07;;;1.87;;
20776;SDS011;10548;47.504;8.248;2023-05-07T14:28:36;3.77;;;2.40;;
20776;SDS011;10548;47.504;8.248;2023-05-07T14:31:06;7.13;;;2.20;;
20776;SDS011;10548;47.504;8.248;2023-05-07T14:33:33;4.17;;;1.87;;
20776;SDS011;10548;47.504;8.248;2023-05-07T14:36:00;3.87;;;2.20;;
20776;SDS011;10548;47.504;8.248;2023-05-07T14:38:28;3.87;;;2.33;;
20776;SDS011;10548;47.504;8.248;2023-05-07T14:40:55;12.37;;;2.50;;
20776;SDS011;10548;47.504;8.248;2023-05-07T14:43:22;2.90;;;2.00;;
20776;SDS011;10548;47.504;8.248;2023-05-07T14:45:50;2.30;;;2.10;;
20776;SDS011;10548;47.504;8.248;2023-05-07T14:48:17;4.30;;;2.00;;
20776;SDS011;10548;47.504;8.248;2023-05-07T14:50:47;3.40;;;2.10;;
20776;SDS011;10548;47.504;8.248;2023-05-07T14:53:15;2.87;;;1.70;;
20776;SDS011;10548;47.504;8.248;2023-05-07T14:55:42;2.53;;;1.70;;
20776;SDS011;10548;47.504;8.248;2023-05-07T14:58:10;6.03;;;1.97;;
20776;SDS011;10548;47.504;8.248;2023-05-07T15:00:37;3.43;;;1.80;;
20776;SDS011;10548;47.504;8.248;2023-05-07T15:03:05;4.80;;;2.20;;
20776;SDS011;10548;47.504;8.248;2023-05-07T15:05:40;2.70;;;2.07;;
20776;SDS011;10548;47.504;8.248;2023-05-07T15:08:08;3.70;;;2.33;;